createdAt,value
2023-04-28T00:00:36.234Z,10.63
2023-04-28T00:01:36.333Z,10.66
2023-04-28T00:02:36.375Z,10.61
2023-04-28T00:03:36.537Z,10.57
2023-04-28T00:04:36.513Z,10.56
2023-04-28T00:05:36.569Z,10.54
2023-04-28T00:06:36.518Z,10.51
2023-04-28T00:07:36.520Z,10.52
2023-04-28T00:08:36.634Z,10.51
2023-04-28T00:09:36.686Z,10.53
2023-04-28T00:10:36.690Z,10.57
2023-04-28T00:11:36.719Z,10.58
2023-04-28T00:12:36.767Z,10.53
2023-04-28T00:13:36.822Z,10.49
2023-04-28T00:14:36.849Z,10.46
2023-04-28T00:15:36.920Z,10.44
2023-04-28T00:16:36.955Z,10.48
2023-04-28T00:17:37.022Z,10.53
2023-04-28T00:18:36.973Z,10.56
2023-04-28T00:19:37.055Z,10.58
2023-04-28T00:20:37.049Z,10.58
2023-04-28T00:21:37.072Z,10.57
2023-04-28T00:22:37.126Z,10.55
2023-04-28T00:23:37.083Z,10.56
2023-04-28T00:24:37.092Z,10.56
2023-04-28T00:25:37.164Z,10.58
2023-04-28T00:26:37.197Z,10.58
2023-04-28T00:27:37.215Z,10.58
2023-04-28T00:28:37.235Z,10.57
2023-04-28T00:29:37.281Z,10.56
2023-04-28T00:30:37.295Z,10.55
2023-04-28T00:31:37.428Z,10.56
2023-04-28T00:32:37.423Z,10.54
2023-04-28T00:33:37.473Z,10.55
2023-04-28T00:34:37.552Z,10.54
2023-04-28T00:35:37.520Z,10.53
2023-04-28T00:36:37.589Z,10.51
2023-04-28T00:37:37.558Z,10.52
2023-04-28T00:38:37.631Z,10.51
2023-04-28T00:39:37.641Z,10.51
2023-04-28T00:40:37.695Z,10.52
2023-04-28T00:41:37.722Z,10.52
2023-04-28T00:42:37.757Z,10.53
2023-04-28T00:43:37.755Z,10.52
2023-04-28T00:44:37.782Z,10.47
2023-04-28T00:45:37.828Z,10.49
2023-04-28T00:46:37.861Z,10.51
2023-04-28T00:47:37.982Z,10.51
2023-04-28T00:48:37.947Z,10.52
2023-04-28T00:49:37.952Z,10.53
2023-04-28T00:50:37.999Z,10.54
2023-04-28T00:51:37.984Z,10.55
2023-04-28T00:52:37.941Z,10.52
2023-04-28T00:53:37.990Z,10.53
2023-04-28T00:54:38.013Z,10.52
2023-04-28T00:55:38.030Z,10.54
2023-04-28T00:56:38.022Z,10.57
2023-04-28T00:57:38.062Z,10.61
2023-04-28T00:58:38.071Z,10.64
2023-04-28T00:59:38.100Z,10.56
2023-04-28T01:00:38.087Z,10.59
2023-04-28T01:01:38.391Z,10.52
2023-04-28T01:02:38.209Z,10.52
2023-04-28T01:03:38.325Z,10.50
2023-04-28T01:04:38.271Z,10.52
2023-04-28T01:05:38.207Z,10.57
2023-04-28T01:06:38.302Z,10.62
2023-04-28T01:07:38.317Z,10.65
2023-04-28T01:08:38.379Z,10.67
2023-04-28T01:09:38.384Z,10.68
2023-04-28T01:10:38.400Z,10.70
2023-04-28T01:11:38.874Z,10.68
2023-04-28T01:12:38.434Z,10.66
2023-04-28T01:13:38.461Z,10.65
2023-04-28T01:14:38.465Z,10.67
2023-04-28T01:15:38.532Z,10.69
2023-04-28T01:16:38.630Z,10.71
2023-04-28T01:17:38.573Z,10.73
2023-04-28T01:18:39.107Z,10.72
2023-04-28T01:19:38.642Z,10.69
2023-04-28T01:20:38.660Z,10.69
2023-04-28T01:21:38.732Z,10.71
2023-04-28T01:22:38.729Z,10.67
2023-04-28T01:23:38.749Z,10.60
2023-04-28T01:24:38.743Z,10.64
2023-04-28T01:25:38.734Z,10.62
2023-04-28T01:26:38.788Z,10.67
2023-04-28T01:27:38.765Z,10.72
2023-04-28T01:28:38.810Z,10.72
2023-04-28T01:29:38.802Z,10.76
2023-04-28T01:30:38.844Z,10.78
2023-04-28T01:31:38.864Z,10.68
2023-04-28T01:32:38.904Z,10.63
2023-04-28T01:33:38.828Z,10.66
2023-04-28T01:34:38.862Z,10.67
2023-04-28T01:35:38.866Z,10.65
2023-04-28T01:36:38.944Z,10.62
2023-04-28T01:37:38.909Z,10.62
2023-04-28T01:38:38.938Z,10.57
2023-04-28T01:39:38.969Z,10.57
2023-04-28T01:40:39.005Z,10.58
2023-04-28T01:41:39.124Z,10.56
2023-04-28T01:42:39.097Z,10.59
2023-04-28T01:43:39.152Z,10.61
2023-04-28T01:44:39.122Z,10.64
2023-04-28T01:45:39.130Z,10.62
2023-04-28T01:46:39.227Z,10.41
2023-04-28T01:47:39.258Z,10.43
2023-04-28T01:48:39.252Z,10.51
2023-04-28T01:49:39.227Z,10.57
2023-04-28T01:50:39.251Z,10.60
2023-04-28T01:51:39.333Z,10.60
2023-04-28T01:52:39.327Z,10.59
2023-04-28T01:53:39.353Z,10.64
2023-04-28T01:54:39.382Z,10.62
2023-04-28T01:55:39.368Z,10.62
2023-04-28T01:56:39.416Z,10.63
2023-04-28T01:57:39.425Z,10.68
2023-04-28T01:58:39.444Z,10.74
2023-04-28T01:59:39.493Z,10.77
2023-04-28T02:00:39.508Z,10.73
2023-04-28T02:01:39.610Z,10.74
2023-04-28T02:02:39.590Z,10.73
2023-04-28T02:03:39.658Z,10.68
2023-04-28T02:04:39.568Z,10.72
2023-04-28T02:05:39.587Z,10.75
2023-04-28T02:06:39.619Z,10.77
2023-04-28T02:07:39.628Z,10.80
2023-04-28T02:08:39.720Z,10.82
2023-04-28T02:09:39.713Z,10.81
2023-04-28T02:11:59.253Z,10.87
2023-04-28T02:12:59.232Z,10.84
2023-04-28T02:13:59.295Z,10.83
2023-04-28T02:14:59.276Z,10.86
2023-04-28T02:15:59.352Z,10.89
2023-04-28T02:16:59.267Z,10.93
2023-04-28T02:17:59.288Z,10.97
2023-04-28T02:18:59.282Z,10.98
2023-04-28T02:19:59.237Z,11.00
2023-04-28T02:20:59.244Z,11.00
2023-04-28T02:21:59.209Z,10.99
2023-04-28T02:22:59.238Z,10.97
2023-04-28T02:23:59.196Z,10.77
2023-04-28T02:24:59.184Z,10.57
2023-04-28T02:25:59.217Z,10.54
2023-04-28T02:26:59.220Z,10.53
2023-04-28T02:27:59.187Z,10.58
2023-04-28T02:28:59.174Z,10.64
2023-04-28T02:29:59.146Z,10.69
2023-04-28T02:30:59.181Z,10.72
2023-04-28T02:31:59.271Z,10.75
2023-04-28T02:32:59.232Z,10.78
2023-04-28T02:33:59.126Z,10.82
2023-04-28T02:34:59.118Z,10.82
2023-04-28T02:35:59.136Z,10.83
2023-04-28T02:36:59.115Z,10.86
2023-04-28T02:37:59.123Z,10.89
2023-04-28T02:38:59.111Z,10.92
2023-04-28T02:39:59.116Z,10.96
2023-04-28T02:40:59.079Z,10.99
2023-04-28T02:41:59.125Z,10.99
2023-04-28T02:42:59.080Z,11.00
2023-04-28T02:43:59.106Z,11.04
2023-04-28T02:44:59.053Z,11.08
2023-04-28T02:45:59.035Z,11.11
2023-04-28T02:46:59.139Z,11.09
2023-04-28T02:47:59.060Z,11.08
2023-04-28T02:48:58.992Z,11.09
2023-04-28T02:49:59.035Z,11.05
2023-04-28T02:50:59.019Z,11.00
2023-04-28T02:51:59.004Z,10.94
2023-04-28T02:52:59.008Z,10.87
2023-04-28T02:53:58.991Z,10.90
2023-04-28T02:54:59.001Z,10.93
2023-04-28T02:55:58.998Z,10.94
2023-04-28T02:56:58.983Z,10.89
2023-04-28T02:57:58.977Z,10.84
2023-04-28T02:59:06.579Z,10.79
2023-04-28T02:59:58.965Z,10.58
2023-04-28T03:00:58.997Z,10.47
2023-04-28T03:01:58.950Z,10.44
2023-04-28T03:02:59.098Z,10.45
2023-04-28T03:03:59.129Z,10.47
2023-04-28T03:04:59.020Z,10.44
2023-04-28T03:05:58.895Z,10.48
2023-04-28T03:06:58.968Z,10.47
2023-04-28T03:07:58.942Z,10.36
2023-04-28T03:08:58.912Z,10.35
2023-04-28T03:09:58.876Z,10.40
2023-04-28T03:10:58.860Z,10.45
2023-04-28T03:11:58.912Z,10.45
2023-04-28T03:12:58.853Z,10.36
2023-04-28T03:13:59.226Z,10.28
2023-04-28T03:14:58.861Z,10.30
2023-04-28T03:15:58.824Z,10.35
2023-04-28T03:16:58.860Z,10.41
2023-04-28T03:17:58.873Z,10.44
2023-04-28T03:18:58.849Z,10.48
2023-04-28T03:19:58.803Z,10.50
2023-04-28T03:20:58.813Z,10.53
2023-04-28T03:21:58.809Z,10.54
2023-04-28T03:22:58.825Z,10.49
2023-04-28T03:23:58.893Z,10.49
2023-04-28T03:24:58.853Z,10.50
2023-04-28T03:25:58.926Z,10.46
2023-04-28T03:26:58.937Z,10.44
2023-04-28T03:27:58.933Z,10.47
2023-04-28T03:28:58.965Z,10.48
2023-04-28T03:29:58.935Z,10.47
2023-04-28T03:30:59.017Z,10.43
2023-04-28T03:31:59.078Z,10.30
2023-04-28T03:32:59.170Z,10.23
2023-04-28T03:33:59.132Z,10.22
2023-04-28T03:34:59.191Z,10.26
2023-04-28T03:35:59.216Z,10.27
2023-04-28T03:36:59.248Z,10.26
2023-04-28T03:37:59.266Z,10.32
2023-04-28T03:38:59.283Z,10.33
2023-04-28T03:39:59.326Z,10.30
2023-04-28T03:40:59.372Z,10.28
2023-04-28T03:41:59.395Z,10.30
2023-04-28T03:42:59.410Z,10.32
2023-04-28T03:43:59.460Z,10.35
2023-04-28T03:44:59.518Z,10.39
2023-04-28T03:45:59.554Z,10.43
2023-04-28T03:46:59.657Z,10.47
2023-04-28T03:47:59.697Z,10.47
2023-04-28T03:48:59.662Z,10.47
2023-04-28T03:49:59.705Z,10.44
2023-04-28T03:50:59.752Z,10.46
2023-04-28T03:51:59.831Z,10.49
2023-04-28T03:52:59.770Z,10.50
2023-04-28T03:53:59.816Z,10.51
2023-04-28T03:54:59.798Z,10.51
2023-04-28T03:55:59.859Z,10.51
2023-04-28T03:56:59.900Z,10.52
2023-04-28T03:57:59.942Z,10.51
2023-04-28T03:58:59.933Z,10.48
2023-04-28T03:59:59.998Z,10.50
2023-04-28T04:00:59.991Z,10.51
2023-04-28T04:02:00.006Z,10.53
2023-04-28T04:03:00.114Z,10.54
2023-04-28T04:04:00.273Z,10.54
2023-04-28T04:05:00.116Z,10.55
2023-04-28T04:06:00.088Z,10.53
2023-04-28T04:07:00.186Z,10.55
2023-04-28T04:08:00.124Z,10.57
2023-04-28T04:09:00.155Z,10.59
2023-04-28T04:10:01.335Z,10.61
2023-04-28T04:11:00.213Z,10.63
2023-04-28T04:12:00.214Z,10.65
2023-04-28T04:13:00.240Z,10.64
2023-04-28T04:14:00.226Z,10.64
2023-04-28T04:15:00.230Z,10.66
2023-04-28T04:16:00.319Z,10.66
2023-04-28T04:17:00.316Z,10.68
2023-04-28T04:18:00.378Z,10.64
2023-04-28T04:19:00.363Z,10.59
2023-04-28T04:20:00.421Z,10.59
2023-04-28T04:21:00.439Z,10.60
2023-04-28T04:22:11.379Z,10.52
2023-04-28T04:23:00.403Z,10.55
2023-04-28T04:24:00.404Z,10.60
2023-04-28T04:25:00.389Z,10.53
2023-04-28T04:26:00.409Z,10.55
2023-04-28T04:27:00.438Z,10.55
2023-04-28T04:28:00.417Z,10.60
2023-04-28T04:29:00.396Z,10.56
2023-04-28T04:30:00.393Z,10.58
2023-04-28T04:31:00.422Z,10.57
2023-04-28T04:32:00.400Z,10.61
2023-04-28T04:33:00.396Z,10.66
2023-04-28T04:34:00.358Z,10.69
2023-04-28T04:35:00.361Z,10.57
2023-04-28T04:36:01.163Z,10.61
2023-04-28T04:37:00.343Z,10.66
2023-04-28T04:38:00.317Z,10.57
2023-04-28T04:39:00.407Z,10.52
2023-04-28T04:40:00.358Z,10.55
2023-04-28T04:41:00.449Z,10.60
2023-04-28T04:42:07.238Z,10.57
2023-04-28T04:43:01.517Z,10.60
2023-04-28T04:44:00.503Z,10.66
2023-04-28T04:45:00.451Z,10.67
2023-04-28T04:46:00.459Z,10.62
2023-04-28T04:47:00.877Z,10.65
2023-04-28T04:48:00.466Z,10.61
2023-04-28T04:49:00.423Z,10.37
2023-04-28T04:50:00.402Z,10.40
2023-04-28T04:51:00.403Z,10.44
2023-04-28T04:52:00.430Z,10.40
2023-04-28T04:53:00.391Z,10.40
2023-04-28T04:54:00.410Z,10.36
2023-04-28T04:55:00.375Z,10.33
2023-04-28T04:56:00.408Z,10.34
2023-04-28T04:57:00.430Z,10.25
2023-04-28T04:58:00.416Z,10.29
2023-04-28T04:59:00.443Z,10.29
2023-04-28T05:00:00.493Z,10.34
2023-04-28T05:01:00.505Z,10.37
2023-04-28T05:02:00.591Z,10.44
2023-04-28T05:03:00.696Z,10.48
2023-04-28T05:04:00.734Z,10.50
2023-04-28T05:05:12.197Z,10.51
2023-04-28T05:06:01.594Z,10.56
2023-04-28T05:07:00.592Z,10.58
2023-04-28T05:08:00.586Z,10.57
2023-04-28T05:09:00.584Z,10.60
2023-04-28T05:10:08.162Z,10.64
2023-04-28T05:11:00.540Z,10.63
2023-04-28T05:12:00.600Z,10.53
2023-04-28T05:13:00.553Z,10.51
2023-04-28T05:14:00.539Z,10.52
2023-04-28T05:15:00.535Z,10.56
2023-04-28T05:16:00.576Z,10.47
2023-04-28T05:17:00.538Z,10.52
2023-04-28T05:18:00.547Z,10.53
2023-04-28T05:19:00.532Z,10.55
2023-04-28T05:20:00.536Z,10.63
2023-04-28T05:21:00.489Z,10.59
2023-04-28T05:22:00.500Z,10.63
2023-04-28T05:23:00.490Z,10.59
2023-04-28T05:24:00.509Z,10.52
2023-04-28T05:25:00.456Z,10.53
2023-04-28T05:26:00.444Z,10.62
2023-04-28T05:27:00.432Z,10.64
2023-04-28T05:28:00.448Z,10.67
2023-04-28T05:29:00.452Z,10.65
2023-04-28T05:30:00.497Z,10.70
2023-04-28T05:31:00.535Z,10.80
2023-04-28T05:32:00.615Z,10.86
2023-04-28T05:33:00.679Z,10.84
2023-04-28T05:34:00.631Z,10.82
2023-04-28T05:35:00.689Z,10.86
2023-04-28T05:36:00.673Z,10.88
2023-04-28T05:37:00.767Z,10.91
2023-04-28T05:38:00.737Z,10.96
2023-04-28T05:39:00.797Z,10.97
2023-04-28T05:40:00.886Z,11.01
2023-04-28T05:41:00.836Z,11.09
2023-04-28T05:42:00.890Z,11.13
2023-04-28T05:43:00.847Z,11.11
2023-04-28T05:44:00.910Z,11.15
2023-04-28T05:45:00.914Z,11.18
2023-04-28T05:46:00.972Z,11.22
2023-04-28T05:47:01.014Z,11.24
2023-04-28T05:48:00.992Z,11.24
2023-04-28T05:49:00.993Z,11.23
2023-04-28T05:50:01.040Z,11.22
2023-04-28T05:51:01.066Z,11.26
2023-04-28T05:52:01.417Z,11.30
2023-04-28T05:53:01.055Z,11.34
2023-04-28T05:54:01.116Z,11.35
2023-04-28T05:55:01.107Z,11.41
2023-04-28T05:56:01.135Z,11.34
2023-04-28T05:57:01.564Z,11.38
2023-04-28T05:58:01.214Z,11.38
2023-04-28T05:59:01.204Z,11.29
2023-04-28T06:00:01.199Z,11.33
2023-04-28T06:01:01.231Z,11.35
2023-04-28T06:02:01.326Z,11.27
2023-04-28T06:03:01.647Z,11.18
2023-04-28T06:04:01.674Z,11.22
2023-04-28T06:05:01.460Z,11.18
2023-04-28T06:06:01.402Z,11.20
2023-04-28T06:07:01.351Z,11.18
2023-04-28T06:08:01.383Z,11.12
2023-04-28T06:09:01.406Z,11.11
2023-04-28T06:10:01.510Z,11.09
2023-04-28T06:11:01.438Z,11.10
2023-04-28T06:12:01.464Z,11.10
2023-04-28T06:13:01.459Z,11.12
2023-04-28T06:14:01.485Z,11.15
2023-04-28T06:15:01.569Z,11.03
2023-04-28T06:16:01.736Z,11.05
2023-04-28T06:17:02.120Z,11.08
2023-04-28T06:18:01.770Z,10.99
2023-04-28T06:19:01.732Z,10.88
2023-04-28T06:20:01.743Z,10.93
2023-04-28T06:21:01.789Z,10.99
2023-04-28T06:22:01.831Z,10.97
2023-04-28T06:23:01.894Z,10.92
2023-04-28T06:24:01.894Z,10.88
2023-04-28T06:25:01.900Z,10.89
2023-04-28T06:26:01.952Z,10.83
2023-04-28T06:27:01.962Z,10.74
2023-04-28T06:28:02.024Z,10.77
2023-04-28T06:29:02.033Z,10.70
2023-04-28T06:30:02.092Z,10.74
2023-04-28T06:31:02.133Z,10.77
2023-04-28T06:32:02.204Z,10.71
2023-04-28T06:33:02.245Z,10.59
2023-04-28T06:34:02.297Z,10.60
2023-04-28T06:35:02.200Z,10.53
2023-04-28T06:36:02.309Z,10.58
2023-04-28T06:37:02.206Z,10.64
2023-04-28T06:38:02.238Z,10.56
2023-04-28T06:39:02.293Z,10.54
2023-04-28T06:40:02.329Z,10.54
2023-04-28T06:41:02.239Z,10.59
2023-04-28T06:42:03.213Z,10.63
2023-04-28T06:43:03.926Z,10.66
2023-04-28T06:44:02.378Z,10.67
2023-04-28T06:45:02.401Z,10.69
2023-04-28T06:46:02.577Z,10.64
2023-04-28T06:47:02.482Z,10.69
2023-04-28T06:48:03.006Z,10.73
2023-04-28T06:49:02.578Z,10.77
2023-04-28T06:50:02.628Z,10.71
2023-04-28T06:51:02.642Z,10.40
2023-04-28T06:52:03.025Z,10.38
2023-04-28T06:53:02.732Z,10.44
2023-04-28T06:54:02.746Z,10.49
2023-04-28T06:55:02.715Z,10.48
2023-04-28T06:56:02.930Z,10.52
2023-04-28T06:57:02.835Z,10.56
2023-04-28T06:58:02.892Z,10.50
2023-04-28T06:59:02.925Z,10.36
2023-04-28T07:00:02.994Z,10.32
2023-04-28T07:01:03.026Z,10.41
2023-04-28T07:02:03.072Z,10.43
2023-04-28T07:03:03.219Z,10.51
2023-04-28T07:04:03.308Z,10.50
2023-04-28T07:05:03.157Z,10.41
2023-04-28T07:06:03.213Z,10.46
2023-04-28T07:07:03.186Z,10.43
2023-04-28T07:08:03.246Z,10.45
2023-04-28T07:09:03.231Z,10.44
2023-04-28T07:10:03.329Z,10.45
2023-04-28T07:11:03.304Z,10.52
2023-04-28T07:12:03.285Z,10.55
2023-04-28T07:13:03.358Z,10.62
2023-04-28T07:14:03.370Z,10.67
2023-04-28T07:15:03.484Z,10.59
2023-04-28T07:16:03.456Z,10.61
2023-04-28T07:17:03.504Z,10.56
2023-04-28T07:18:04.014Z,10.65
2023-04-28T07:19:03.604Z,10.66
2023-04-28T07:20:03.637Z,10.68
2023-04-28T07:21:05.542Z,10.69
2023-04-28T07:22:03.713Z,10.71
2023-04-28T07:23:04.015Z,10.77
2023-04-28T07:24:03.998Z,10.80
2023-04-28T07:25:03.860Z,10.86
2023-04-28T07:26:04.504Z,10.93
2023-04-28T07:27:03.897Z,10.99
2023-04-28T07:28:04.051Z,10.92
2023-04-28T07:29:03.987Z,10.89
2023-04-28T07:31:04.040Z,10.95
2023-04-28T07:32:06.036Z,11.00
2023-04-28T07:33:11.982Z,11.02
2023-04-28T07:34:04.015Z,10.97
2023-04-28T07:35:03.964Z,11.00
2023-04-28T07:36:03.966Z,11.00
2023-04-28T07:37:03.969Z,10.97
2023-04-28T07:38:03.967Z,11.01
2023-04-28T07:39:03.968Z,11.08
2023-04-28T07:40:03.984Z,11.06
2023-04-28T07:41:05.162Z,11.03
2023-04-28T07:42:04.078Z,10.97
2023-04-28T07:43:04.029Z,11.02
2023-04-28T07:44:04.285Z,11.00
2023-04-28T07:45:03.905Z,11.07
2023-04-28T07:46:04.001Z,11.09
2023-04-28T07:47:03.938Z,11.15
2023-04-28T07:48:04.166Z,11.23
2023-04-28T07:49:03.956Z,11.24
2023-04-28T07:50:03.968Z,11.18
2023-04-28T07:51:03.953Z,11.23
2023-04-28T07:52:03.944Z,11.31
2023-04-28T07:53:03.922Z,11.27
2023-04-28T07:54:03.848Z,11.23
2023-04-28T07:55:03.860Z,11.30
2023-04-28T07:56:03.785Z,11.36
2023-04-28T07:57:03.800Z,11.41
2023-04-28T07:58:03.849Z,11.45
2023-04-28T07:59:03.860Z,11.45
2023-04-28T08:00:04.462Z,11.47
2023-04-28T08:01:03.892Z,11.46
2023-04-28T08:02:03.859Z,11.48
2023-04-28T08:03:04.198Z,11.53
2023-04-28T08:04:04.080Z,11.49
2023-04-28T08:05:03.983Z,11.52
2023-04-28T08:06:03.820Z,11.60
2023-04-28T08:07:03.759Z,11.66
2023-04-28T08:08:03.797Z,11.63
2023-04-28T08:09:03.778Z,11.68
2023-04-28T08:10:03.779Z,11.75
2023-04-28T08:11:03.761Z,11.75
2023-04-28T08:12:03.748Z,11.76
2023-04-28T08:13:03.812Z,11.79
2023-04-28T08:14:03.970Z,11.68
2023-04-28T08:15:03.801Z,11.67
2023-04-28T08:16:03.702Z,11.64
2023-04-28T08:17:03.691Z,11.68
2023-04-28T08:18:04.154Z,11.68
2023-04-28T08:19:03.745Z,11.76
2023-04-28T08:20:04.008Z,11.75
2023-04-28T08:21:03.642Z,11.78
2023-04-28T08:23:23.399Z,11.67
2023-04-28T08:24:23.422Z,11.73
2023-04-28T08:25:23.432Z,11.62
2023-04-28T08:26:23.414Z,11.55
2023-04-28T08:27:23.416Z,11.59
2023-04-28T08:28:23.428Z,11.63
2023-04-28T08:29:23.437Z,11.67
2023-04-28T08:30:23.379Z,11.73
2023-04-28T08:31:23.418Z,11.76
2023-04-28T08:32:23.351Z,11.76
2023-04-28T08:33:23.483Z,11.81
2023-04-28T08:34:23.406Z,11.80
2023-04-28T08:35:23.370Z,11.83
2023-04-28T08:36:23.354Z,11.89
2023-04-28T08:37:23.379Z,11.93
2023-04-28T08:38:23.559Z,11.94
2023-04-28T08:39:23.389Z,11.93
2023-04-28T08:40:23.393Z,11.87
2023-04-28T08:41:23.337Z,11.70
2023-04-28T08:42:23.435Z,11.68
2023-04-28T08:43:23.354Z,11.62
2023-04-28T08:44:23.297Z,11.68
2023-04-28T08:45:23.334Z,11.71
2023-04-28T08:46:23.381Z,11.73
2023-04-28T08:47:23.275Z,11.67
2023-04-28T08:48:23.260Z,11.77
2023-04-28T08:49:23.256Z,11.79
2023-04-28T08:50:23.278Z,11.83
2023-04-28T08:51:23.265Z,11.86
2023-04-28T08:52:23.307Z,11.75
2023-04-28T08:53:23.257Z,11.81
2023-04-28T08:54:26.561Z,11.77
2023-04-28T08:55:23.215Z,11.75
2023-04-28T08:56:23.285Z,11.78
2023-04-28T08:57:23.241Z,11.89
2023-04-28T08:58:23.242Z,11.93
2023-04-28T08:59:23.206Z,11.86
2023-04-28T09:00:23.250Z,11.82
2023-04-28T09:01:23.232Z,11.90
2023-04-28T09:02:23.268Z,11.79
2023-04-28T09:03:23.378Z,11.64
2023-04-28T09:04:23.519Z,11.67
2023-04-28T09:05:23.900Z,11.72
2023-04-28T09:06:23.161Z,11.75
2023-04-28T09:07:23.155Z,11.73
2023-04-28T09:08:23.170Z,11.68
2023-04-28T09:09:23.136Z,11.75
2023-04-28T09:10:23.131Z,11.72
2023-04-28T09:11:23.143Z,11.65
2023-04-28T09:12:23.065Z,11.68
2023-04-28T09:13:23.132Z,11.68
2023-04-28T09:14:23.120Z,11.65
2023-04-28T09:15:23.685Z,11.72
2023-04-28T09:16:23.149Z,11.74
2023-04-28T09:17:23.216Z,11.70
2023-04-28T09:18:23.053Z,11.74
2023-04-28T09:19:23.063Z,11.65
2023-04-28T09:20:23.059Z,11.66
2023-04-28T09:21:23.076Z,11.73
2023-04-28T09:22:26.600Z,11.76
2023-04-28T09:23:23.075Z,11.77
2023-04-28T09:24:23.096Z,11.78
2023-04-28T09:25:22.995Z,11.74
2023-04-28T09:26:23.002Z,11.79
2023-04-28T09:27:23.009Z,11.86
2023-04-28T09:28:22.979Z,11.85
2023-04-28T09:29:23.016Z,11.93
2023-04-28T09:30:22.980Z,11.90
2023-04-28T09:31:23.045Z,11.92
2023-04-28T09:32:23.210Z,11.96
2023-04-28T09:33:23.037Z,11.97
2023-04-28T09:34:22.911Z,12.02
2023-04-28T09:35:22.960Z,12.06
2023-04-28T09:36:23.080Z,12.03
2023-04-28T09:37:22.967Z,12.06
2023-04-28T09:38:22.922Z,12.04
2023-04-28T09:39:22.910Z,12.09
2023-04-28T09:40:23.775Z,12.15
2023-04-28T09:41:23.005Z,12.12
2023-04-28T09:42:22.859Z,12.14
2023-04-28T09:43:23.408Z,12.22
2023-04-28T09:44:22.902Z,12.24
2023-04-28T09:45:22.896Z,12.25
2023-04-28T09:46:23.131Z,12.18
2023-04-28T09:47:22.846Z,12.15
2023-04-28T09:48:23.217Z,12.14
2023-04-28T09:49:22.842Z,12.14
2023-04-28T09:50:22.826Z,12.12
2023-04-28T09:51:22.809Z,12.12
2023-04-28T09:52:24.712Z,11.95
2023-04-28T09:53:22.904Z,11.74
2023-04-28T09:54:22.782Z,11.66
2023-04-28T09:55:22.891Z,11.49
2023-04-28T09:56:22.795Z,11.58
2023-04-28T09:57:22.827Z,11.59
2023-04-28T09:58:22.833Z,11.68
2023-04-28T09:59:22.873Z,11.75
2023-04-28T10:00:22.817Z,11.80
2023-04-28T10:01:22.867Z,11.78
2023-04-28T10:02:42.863Z,11.74
2023-04-28T10:03:25.093Z,11.75
2023-04-28T10:04:23.017Z,11.71
2023-04-28T10:05:23.353Z,11.78
2023-04-28T10:06:23.692Z,11.86
2023-04-28T10:07:22.881Z,11.88
2023-04-28T10:08:22.888Z,11.90
2023-04-28T10:09:24.807Z,11.83
2023-04-28T10:10:22.848Z,11.87
2023-04-28T10:11:22.866Z,11.94
2023-04-28T10:12:22.827Z,11.86
2023-04-28T10:13:22.869Z,11.88
2023-04-28T10:14:22.807Z,11.80
2023-04-28T10:15:22.892Z,11.61
2023-04-28T10:16:22.865Z,11.73
2023-04-28T10:17:22.801Z,11.80
2023-04-28T10:18:22.806Z,11.86
2023-04-28T10:19:22.821Z,11.92
2023-04-28T10:20:22.848Z,11.98
2023-04-28T10:21:22.865Z,12.00
2023-04-28T10:22:22.896Z,11.98
2023-04-28T10:23:22.948Z,11.97
2023-04-28T10:24:23.002Z,11.96
2023-04-28T10:25:23.018Z,11.96
2023-04-28T10:26:23.040Z,12.02
2023-04-28T10:27:23.058Z,12.10
2023-04-28T10:28:23.155Z,11.99
2023-04-28T10:29:23.166Z,12.02
2023-04-28T10:30:27.943Z,11.97
2023-04-28T10:31:24.220Z,11.84
2023-04-28T10:32:23.290Z,11.83
2023-04-28T10:33:23.224Z,11.91
2023-04-28T10:34:23.181Z,11.95
2023-04-28T10:35:23.284Z,11.98
2023-04-28T10:36:35.732Z,12.03
2023-04-28T10:37:24.225Z,11.97
2023-04-28T10:38:23.494Z,12.01
2023-04-28T10:39:23.265Z,11.89
2023-04-28T10:40:23.108Z,11.96
2023-04-28T10:41:23.107Z,12.05
2023-04-28T10:42:23.121Z,12.11
2023-04-28T10:43:23.118Z,12.17
2023-04-28T10:44:23.155Z,12.23
2023-04-28T10:45:23.127Z,12.22
2023-04-28T10:46:23.203Z,12.17
2023-04-28T10:47:23.154Z,12.23
2023-04-28T10:48:23.094Z,12.17
2023-04-28T10:49:23.059Z,11.97
2023-04-28T10:50:32.429Z,11.80
2023-04-28T10:51:24.089Z,11.82
2023-04-28T10:52:23.080Z,11.86
2023-04-28T10:53:23.108Z,11.86
2023-04-28T10:54:23.166Z,11.90
2023-04-28T10:55:23.069Z,11.86
2023-04-28T10:56:23.082Z,11.94
2023-04-28T10:57:23.156Z,11.97
2023-04-28T10:58:23.028Z,11.93
2023-04-28T10:59:23.123Z,11.97
2023-04-28T11:00:23.496Z,11.93
2023-04-28T11:01:23.234Z,11.97
2023-04-28T11:02:23.159Z,11.90
2023-04-28T11:03:23.174Z,11.95
2023-04-28T11:04:23.351Z,11.96
2023-04-28T11:05:23.280Z,12.03
2023-04-28T11:06:23.177Z,12.13
2023-04-28T11:07:24.799Z,12.12
2023-04-28T11:08:23.262Z,12.19
2023-04-28T11:09:23.286Z,12.36
2023-04-28T11:10:23.304Z,12.48
2023-04-28T11:11:23.243Z,12.60
2023-04-28T11:12:23.310Z,12.56
2023-04-28T11:13:23.403Z,12.70
2023-04-28T11:14:23.432Z,12.73
2023-04-28T11:15:23.406Z,12.91
2023-04-28T11:16:23.546Z,12.92
2023-04-28T11:17:23.456Z,13.02
2023-04-28T11:18:23.546Z,12.97
2023-04-28T11:19:23.537Z,13.06
2023-04-28T11:20:23.653Z,12.98
2023-04-28T11:21:23.654Z,12.98
2023-04-28T11:22:23.730Z,13.00
2023-04-28T11:23:23.692Z,12.91
2023-04-28T11:24:24.559Z,13.05
2023-04-28T11:25:23.714Z,13.12
2023-04-28T11:26:23.898Z,13.21
2023-04-28T11:27:23.836Z,13.23
2023-04-28T11:28:23.849Z,13.27
2023-04-28T11:29:23.868Z,13.20
2023-04-28T11:30:23.863Z,13.10
2023-04-28T11:31:23.934Z,13.01
2023-04-28T11:32:23.878Z,13.04
2023-04-28T11:33:23.925Z,13.16
2023-04-28T11:34:24.236Z,13.22
2023-04-28T11:35:24.029Z,13.20
2023-04-28T11:36:23.959Z,13.05
2023-04-28T11:37:24.038Z,13.22
2023-04-28T11:38:24.052Z,13.41
2023-04-28T11:39:24.239Z,13.52
2023-04-28T11:40:24.086Z,13.59
2023-04-28T11:41:24.170Z,13.65
2023-04-28T11:42:24.147Z,13.83
2023-04-28T11:43:25.880Z,13.97
2023-04-28T11:44:24.166Z,14.07
2023-04-28T11:45:24.155Z,14.04
2023-04-28T11:46:24.212Z,14.01
2023-04-28T11:47:24.173Z,14.07
2023-04-28T11:48:24.130Z,14.00
2023-04-28T11:49:24.244Z,14.06
2023-04-28T11:50:25.132Z,13.97
2023-04-28T11:51:24.150Z,14.02
2023-04-28T11:52:24.100Z,14.08
2023-04-28T11:53:24.133Z,13.95
2023-04-28T11:54:24.119Z,13.97
2023-04-28T11:55:24.087Z,14.02
2023-04-28T11:56:24.123Z,14.03
2023-04-28T11:57:24.078Z,13.92
2023-04-28T11:58:24.137Z,13.86
2023-04-28T12:00:24.079Z,13.77
2023-04-28T12:01:24.222Z,13.80
2023-04-28T12:02:24.283Z,13.73
2023-04-28T12:03:24.358Z,13.70
2023-04-28T12:04:24.230Z,13.77
2023-04-28T12:05:24.267Z,13.72
2023-04-28T12:06:24.434Z,13.64
2023-04-28T12:07:24.425Z,13.50
2023-04-28T12:08:24.311Z,13.38
2023-04-28T12:09:24.431Z,13.36
2023-04-28T12:10:24.325Z,13.26
2023-04-28T12:11:25.729Z,13.27
2023-04-28T12:12:30.695Z,13.00
2023-04-28T12:13:25.384Z,13.07
2023-04-28T12:14:24.377Z,12.77
2023-04-28T12:15:24.330Z,12.80
2023-04-28T12:16:24.478Z,12.73
2023-04-28T12:17:24.369Z,12.75
2023-04-28T12:18:24.318Z,12.78
2023-04-28T12:19:24.379Z,12.64
2023-04-28T12:20:24.371Z,12.75
2023-04-28T12:21:24.321Z,12.72
2023-04-28T12:22:24.351Z,12.67
2023-04-28T12:23:24.328Z,12.73
2023-04-28T12:24:24.320Z,12.87
2023-04-28T12:25:24.334Z,12.99
2023-04-28T12:26:24.293Z,13.06
2023-04-28T12:27:24.347Z,13.14
2023-04-28T12:28:24.382Z,13.23
2023-04-28T12:29:24.407Z,13.30
2023-04-28T12:30:24.432Z,13.37
2023-04-28T12:31:24.515Z,13.31
2023-04-28T12:32:24.448Z,13.40
2023-04-28T12:33:24.502Z,13.27
2023-04-28T12:34:24.571Z,13.38
2023-04-28T12:35:24.622Z,13.14
2023-04-28T12:36:24.625Z,13.31
2023-04-28T12:37:24.634Z,13.44
2023-04-28T12:38:24.779Z,13.41
2023-04-28T12:39:24.803Z,13.43
2023-04-28T12:40:24.807Z,13.24
2023-04-28T12:41:24.818Z,13.32
2023-04-28T12:42:24.957Z,13.33
2023-04-28T12:43:24.870Z,13.33
2023-04-28T12:44:24.930Z,13.19
2023-04-28T12:45:24.993Z,13.36
2023-04-28T12:46:24.996Z,13.42
2023-04-28T12:47:25.011Z,13.51
2023-04-28T12:48:25.069Z,13.59
2023-04-28T12:49:25.107Z,13.68
2023-04-28T12:50:25.085Z,13.59
2023-04-28T12:51:25.210Z,13.67
2023-04-28T12:52:25.527Z,13.69
2023-04-28T12:53:25.206Z,13.74
2023-04-28T12:54:25.263Z,13.78
2023-04-28T12:55:25.309Z,13.73
2023-04-28T12:56:25.365Z,13.65
2023-04-28T12:57:25.285Z,13.72